sensor_id;sensor_type;location;lat;lon;timestamp;P1;durP1;ratioP1;P2;durP2;ratioP2
52033;SDS011;38045;52.988;6.536;2022-11-15T00:00:29;25.85;;;19.75;;
52033;SDS011;38045;52.988;6.536;2022-11-15T00:02:55;27.08;;;19.42;;
52033;SDS011;38045;52.988;6.536;2022-11-15T00:05:21;24.05;;;19.30;;
52033;SDS011;38045;52.988;6.536;2022-11-15T00:07:46;23.08;;;19.05;;
52033;SDS011;38045;52.988;6.536;2022-11-15T00:10:12;22.92;;;18.70;;
52033;SDS011;38045;52.988;6.536;2022-11-15T00:12:38;23.75;;;19.58;;
52033;SDS011;38045;52.988;6.536;2022-11-15T00:15:03;27.48;;;21.85;;
52033;SDS011;38045;52.988;6.536;2022-11-15T00:17:30;26.70;;;21.40;;
52033;SDS011;38045;52.988;6.536;2022-11-15T00:19:55;24.98;;;19.35;;
52033;SDS011;38045;52.988;6.536;2022-11-15T00:22:21;25.20;;;19.42;;
52033;SDS011;38045;52.988;6.536;2022-11-15T00:24:47;27.55;;;20.55;;
52033;SDS011;38045;52.988;6.536;2022-11-15T00:27:12;27.63;;;20.52;;
52033;SDS011;38045;52.988;6.536;2022-11-15T00:29:38;23.63;;;18.63;;
52033;SDS011;38045;52.988;6.536;2022-11-15T00:32:10;29.55;;;20.35;;
52033;SDS011;38045;52.988;6.536;2022-11-15T00:34:36;28.23;;;22.17;;
52033;SDS011;38045;52.988;6.536;2022-11-15T00:37:01;24.73;;;19.42;;
52033;SDS011;38045;52.988;6.536;2022-11-15T00:39:27;25.02;;;18.60;;
52033;SDS011;38045;52.988;6.536;2022-11-15T00:41:53;26.70;;;20.20;;
52033;SDS011;38045;52.988;6.536;2022-11-15T00:44:18;30.67;;;20.38;;
52033;SDS011;38045;52.988;6.536;2022-11-15T00:46:44;25.92;;;19.77;;
52033;SDS011;38045;52.988;6.536;2022-11-15T00:49:09;25.52;;;19.63;;
52033;SDS011;38045;52.988;6.536;2022-11-15T00:51:35;26.52;;;20.02;;
52033;SDS011;38045;52.988;6.536;2022-11-15T00:54:00;35.05;;;21.90;;
52033;SDS011;38045;52.988;6.536;2022-11-15T00:56:26;31.17;;;23.75;;
52033;SDS011;38045;52.988;6.536;2022-11-15T00:58:52;23.95;;;17.05;;
52033;SDS011;38045;52.988;6.536;2022-11-15T01:01:17;20.40;;;14.98;;
52033;SDS011;38045;52.988;6.536;2022-11-15T01:03:43;30.00;;;21.55;;
52033;SDS011;38045;52.988;6.536;2022-11-15T01:06:09;28.08;;;21.33;;
52033;SDS011;38045;52.988;6.536;2022-11-15T01:08:35;30.70;;;22.25;;
52033;SDS011;38045;52.988;6.536;2022-11-15T01:11:05;30.50;;;24.42;;
52033;SDS011;38045;52.988;6.536;2022-11-15T01:13:33;24.17;;;16.30;;
52033;SDS011;38045;52.988;6.536;2022-11-15T01:16:18;29.88;;;20.40;;
52033;SDS011;38045;52.988;6.536;2022-11-15T01:18:44;27.48;;;18.08;;
52033;SDS011;38045;52.988;6.536;2022-11-15T01:21:11;30.83;;;18.45;;
52033;SDS011;38045;52.988;6.536;2022-11-15T01:23:39;32.97;;;21.52;;
52033;SDS011;38045;52.988;6.536;2022-11-15T01:26:06;26.63;;;19.50;;
52033;SDS011;38045;52.988;6.536;2022-11-15T01:31:01;32.25;;;23.58;;
52033;SDS011;38045;52.988;6.536;2022-11-15T01:33:29;26.23;;;19.60;;
52033;SDS011;38045;52.988;6.536;2022-11-15T01:35:55;28.25;;;19.98;;
52033;SDS011;38045;52.988;6.536;2022-11-15T01:38:21;24.77;;;17.38;;
52033;SDS011;38045;52.988;6.536;2022-11-15T01:40:47;28.52;;;20.90;;
52033;SDS011;38045;52.988;6.536;2022-11-15T01:45:50;32.35;;;21.73;;
52033;SDS011;38045;52.988;6.536;2022-11-15T01:48:43;24.98;;;19.20;;
52033;SDS011;38045;52.988;6.536;2022-11-15T01:51:09;24.63;;;17.95;;
52033;SDS011;38045;52.988;6.536;2022-11-15T01:56:06;27.77;;;19.98;;
52033;SDS011;38045;52.988;6.536;2022-11-15T01:58:34;31.50;;;21.20;;
52033;SDS011;38045;52.988;6.536;2022-11-15T02:01:01;25.48;;;18.23;;
52033;SDS011;38045;52.988;6.536;2022-11-15T02:03:29;32.63;;;22.75;;
52033;SDS011;38045;52.988;6.536;2022-11-15T02:06:03;30.83;;;20.40;;
52033;SDS011;38045;52.988;6.536;2022-11-15T02:08:30;32.28;;;21.08;;
52033;SDS011;38045;52.988;6.536;2022-11-15T02:10:55;23.95;;;16.25;;
52033;SDS011;38045;52.988;6.536;2022-11-15T02:13:21;34.83;;;24.83;;
52033;SDS011;38045;52.988;6.536;2022-11-15T02:15:53;41.67;;;23.92;;
52033;SDS011;38045;52.988;6.536;2022-11-15T02:18:45;39.38;;;24.38;;
52033;SDS011;38045;52.988;6.536;2022-11-15T02:21:42;31.63;;;22.45;;
52033;SDS011;38045;52.988;6.536;2022-11-15T02:30:34;38.13;;;23.45;;
52033;SDS011;38045;52.988;6.536;2022-11-15T02:33:03;31.92;;;24.48;;
52033;SDS011;38045;52.988;6.536;2022-11-15T02:35:48;33.00;;;24.33;;
52033;SDS011;38045;52.988;6.536;2022-11-15T02:41:02;33.78;;;24.10;;
52033;SDS011;38045;52.988;6.536;2022-11-15T02:43:39;34.75;;;22.95;;
52033;SDS011;38045;52.988;6.536;2022-11-15T02:46:25;30.55;;;20.52;;
52033;SDS011;38045;52.988;6.536;2022-11-15T02:49:24;39.33;;;26.27;;
52033;SDS011;38045;52.988;6.536;2022-11-15T02:51:54;31.90;;;22.92;;
52033;SDS011;38045;52.988;6.536;2022-11-15T02:54:22;37.15;;;25.75;;
52033;SDS011;38045;52.988;6.536;2022-11-15T02:56:54;32.03;;;21.55;;
52033;SDS011;38045;52.988;6.536;2022-11-15T02:59:32;32.95;;;20.13;;
52033;SDS011;38045;52.988;6.536;2022-11-15T03:10:15;41.28;;;24.02;;
52033;SDS011;38045;52.988;6.536;2022-11-15T03:12:57;30.48;;;18.52;;
52033;SDS011;38045;52.988;6.536;2022-11-15T03:15:38;38.03;;;22.00;;
52033;SDS011;38045;52.988;6.536;2022-11-15T03:18:14;35.38;;;20.85;;
52033;SDS011;38045;52.988;6.536;2022-11-15T03:20:53;35.70;;;21.38;;
52033;SDS011;38045;52.988;6.536;2022-11-15T03:23:22;36.28;;;21.60;;
52033;SDS011;38045;52.988;6.536;2022-11-15T03:25:50;38.15;;;25.20;;
52033;SDS011;38045;52.988;6.536;2022-11-15T03:28:22;33.38;;;23.02;;
52033;SDS011;38045;52.988;6.536;2022-11-15T03:30:52;36.78;;;23.25;;
52033;SDS011;38045;52.988;6.536;2022-11-15T03:33:20;32.38;;;19.52;;
52033;SDS011;38045;52.988;6.536;2022-11-15T03:35:47;37.25;;;23.13;;
52033;SDS011;38045;52.988;6.536;2022-11-15T03:38:21;40.38;;;26.35;;
52033;SDS011;38045;52.988;6.536;2022-11-15T03:40:57;40.90;;;22.85;;
52033;SDS011;38045;52.988;6.536;2022-11-15T03:43:35;58.00;;;27.75;;
52033;SDS011;38045;52.988;6.536;2022-11-15T03:46:28;39.30;;;23.40;;
52033;SDS011;38045;52.988;6.536;2022-11-15T03:49:12;42.10;;;25.83;;
52033;SDS011;38045;52.988;6.536;2022-11-15T03:51:59;44.50;;;26.90;;
52033;SDS011;38045;52.988;6.536;2022-11-15T03:54:26;39.00;;;25.77;;
52033;SDS011;38045;52.988;6.536;2022-11-15T03:56:51;46.38;;;24.15;;
52033;SDS011;38045;52.988;6.536;2022-11-15T03:59:17;40.90;;;24.35;;
52033;SDS011;38045;52.988;6.536;2022-11-15T04:01:43;44.17;;;25.35;;
52033;SDS011;38045;52.988;6.536;2022-11-15T04:04:08;44.42;;;25.98;;
52033;SDS011;38045;52.988;6.536;2022-11-15T04:06:34;37.42;;;24.45;;
52033;SDS011;38045;52.988;6.536;2022-11-15T04:09:00;48.63;;;27.35;;
52033;SDS011;38045;52.988;6.536;2022-11-15T04:11:25;48.17;;;25.77;;
52033;SDS011;38045;52.988;6.536;2022-11-15T04:13:51;46.80;;;26.92;;
52033;SDS011;38045;52.988;6.536;2022-11-15T04:16:16;47.08;;;26.63;;
52033;SDS011;38045;52.988;6.536;2022-11-15T04:18:42;46.83;;;29.13;;
52033;SDS011;38045;52.988;6.536;2022-11-15T04:21:07;46.67;;;26.67;;
52033;SDS011;38045;52.988;6.536;2022-11-15T04:23:52;51.75;;;28.17;;
52033;SDS011;38045;52.988;6.536;2022-11-15T04:26:18;48.70;;;27.38;;
52033;SDS011;38045;52.988;6.536;2022-11-15T04:28:46;53.55;;;29.58;;
52033;SDS011;38045;52.988;6.536;2022-11-15T04:31:31;44.72;;;28.63;;
52033;SDS011;38045;52.988;6.536;2022-11-15T04:33:56;47.13;;;28.48;;
52033;SDS011;38045;52.988;6.536;2022-11-15T04:36:22;49.00;;;27.58;;
52033;SDS011;38045;52.988;6.536;2022-11-15T04:39:06;55.80;;;30.50;;
52033;SDS011;38045;52.988;6.536;2022-11-15T04:41:32;56.05;;;28.17;;
52033;SDS011;38045;52.988;6.536;2022-11-15T04:43:57;57.13;;;31.35;;
52033;SDS011;38045;52.988;6.536;2022-11-15T04:46:23;41.67;;;29.00;;
52033;SDS011;38045;52.988;6.536;2022-11-15T04:48:50;56.90;;;31.90;;
52033;SDS011;38045;52.988;6.536;2022-11-15T04:51:15;51.10;;;33.83;;
52033;SDS011;38045;52.988;6.536;2022-11-15T04:53:41;52.22;;;28.83;;
52033;SDS011;38045;52.988;6.536;2022-11-15T04:56:07;49.22;;;28.73;;
52033;SDS011;38045;52.988;6.536;2022-11-15T04:58:32;60.65;;;33.65;;
52033;SDS011;38045;52.988;6.536;2022-11-15T05:01:05;49.22;;;32.88;;
52033;SDS011;38045;52.988;6.536;2022-11-15T05:03:40;59.47;;;31.88;;
52033;SDS011;38045;52.988;6.536;2022-11-15T05:06:25;63.70;;;34.13;;
52033;SDS011;38045;52.988;6.536;2022-11-15T05:08:51;66.60;;;34.75;;
52033;SDS011;38045;52.988;6.536;2022-11-15T05:11:17;57.40;;;32.42;;
52033;SDS011;38045;52.988;6.536;2022-11-15T05:13:42;54.97;;;33.20;;
52033;SDS011;38045;52.988;6.536;2022-11-15T05:16:08;57.58;;;35.40;;
52033;SDS011;38045;52.988;6.536;2022-11-15T05:18:33;59.25;;;36.55;;
52033;SDS011;38045;52.988;6.536;2022-11-15T05:21:05;50.70;;;28.52;;
52033;SDS011;38045;52.988;6.536;2022-11-15T05:23:33;49.38;;;32.08;;
52033;SDS011;38045;52.988;6.536;2022-11-15T05:25:59;47.67;;;32.13;;
52033;SDS011;38045;52.988;6.536;2022-11-15T05:28:26;64.45;;;33.83;;
52033;SDS011;38045;52.988;6.536;2022-11-15T05:30:52;60.75;;;33.80;;
52033;SDS011;38045;52.988;6.536;2022-11-15T05:33:17;58.55;;;32.25;;
52033;SDS011;38045;52.988;6.536;2022-11-15T05:35:45;58.17;;;33.03;;
52033;SDS011;38045;52.988;6.536;2022-11-15T05:38:15;58.17;;;34.78;;
52033;SDS011;38045;52.988;6.536;2022-11-15T05:40:41;58.47;;;35.15;;
52033;SDS011;38045;52.988;6.536;2022-11-15T05:43:07;62.00;;;35.15;;
52033;SDS011;38045;52.988;6.536;2022-11-15T05:45:33;57.60;;;34.05;;
52033;SDS011;38045;52.988;6.536;2022-11-15T05:48:00;61.70;;;34.30;;
52033;SDS011;38045;52.988;6.536;2022-11-15T05:50:31;66.40;;;37.78;;
52033;SDS011;38045;52.988;6.536;2022-11-15T05:52:58;57.53;;;36.30;;
52033;SDS011;38045;52.988;6.536;2022-11-15T05:55:24;59.97;;;33.92;;
52033;SDS011;38045;52.988;6.536;2022-11-15T05:57:50;45.28;;;32.78;;
52033;SDS011;38045;52.988;6.536;2022-11-15T06:00:15;51.20;;;33.90;;
52033;SDS011;38045;52.988;6.536;2022-11-15T06:02:41;47.08;;;33.65;;
52033;SDS011;38045;52.988;6.536;2022-11-15T06:05:07;53.80;;;33.42;;
52033;SDS011;38045;52.988;6.536;2022-11-15T06:07:33;37.97;;;26.20;;
52033;SDS011;38045;52.988;6.536;2022-11-15T06:09:58;43.63;;;32.13;;
52033;SDS011;38045;52.988;6.536;2022-11-15T06:12:24;49.00;;;32.00;;
52033;SDS011;38045;52.988;6.536;2022-11-15T06:14:49;43.08;;;30.65;;
52033;SDS011;38045;52.988;6.536;2022-11-15T06:17:15;57.05;;;34.42;;
52033;SDS011;38045;52.988;6.536;2022-11-15T06:19:40;55.67;;;35.22;;
52033;SDS011;38045;52.988;6.536;2022-11-15T06:22:06;36.60;;;27.25;;
52033;SDS011;38045;52.988;6.536;2022-11-15T06:24:32;45.38;;;31.45;;
52033;SDS011;38045;52.988;6.536;2022-11-15T06:26:57;47.80;;;31.27;;
52033;SDS011;38045;52.988;6.536;2022-11-15T06:29:23;54.70;;;33.30;;
52033;SDS011;38045;52.988;6.536;2022-11-15T06:31:49;53.13;;;32.25;;
52033;SDS011;38045;52.988;6.536;2022-11-15T06:34:15;54.70;;;33.33;;
52033;SDS011;38045;52.988;6.536;2022-11-15T06:36:40;48.22;;;30.73;;
52033;SDS011;38045;52.988;6.536;2022-11-15T06:39:06;45.25;;;28.13;;
52033;SDS011;38045;52.988;6.536;2022-11-15T06:41:34;52.95;;;33.30;;
52033;SDS011;38045;52.988;6.536;2022-11-15T06:46:26;60.20;;;33.63;;
52033;SDS011;38045;52.988;6.536;2022-11-15T06:48:52;56.38;;;32.05;;
52033;SDS011;38045;52.988;6.536;2022-11-15T06:51:18;50.28;;;31.25;;
52033;SDS011;38045;52.988;6.536;2022-11-15T06:53:43;51.53;;;34.00;;
52033;SDS011;38045;52.988;6.536;2022-11-15T06:56:09;52.33;;;33.00;;
52033;SDS011;38045;52.988;6.536;2022-11-15T06:58:35;51.50;;;34.35;;
52033;SDS011;38045;52.988;6.536;2022-11-15T07:01:02;49.72;;;32.45;;
52033;SDS011;38045;52.988;6.536;2022-11-15T07:03:35;42.25;;;27.13;;
52033;SDS011;38045;52.988;6.536;2022-11-15T07:06:02;42.95;;;30.42;;
52033;SDS011;38045;52.988;6.536;2022-11-15T07:08:28;47.45;;;33.20;;
52033;SDS011;38045;52.988;6.536;2022-11-15T07:10:59;43.78;;;30.50;;
52033;SDS011;38045;52.988;6.536;2022-11-15T07:13:27;43.47;;;31.10;;
52033;SDS011;38045;52.988;6.536;2022-11-15T07:15:53;52.90;;;31.60;;
52033;SDS011;38045;52.988;6.536;2022-11-15T07:18:19;42.17;;;27.77;;
52033;SDS011;38045;52.988;6.536;2022-11-15T07:20:45;48.35;;;30.35;;
52033;SDS011;38045;52.988;6.536;2022-11-15T07:23:11;48.63;;;33.25;;
52033;SDS011;38045;52.988;6.536;2022-11-15T07:25:36;41.30;;;29.65;;
52033;SDS011;38045;52.988;6.536;2022-11-15T07:28:02;43.42;;;28.33;;
52033;SDS011;38045;52.988;6.536;2022-11-15T07:30:28;43.38;;;28.02;;
52033;SDS011;38045;52.988;6.536;2022-11-15T07:35:20;52.78;;;33.78;;
52033;SDS011;38045;52.988;6.536;2022-11-15T07:37:53;40.67;;;29.23;;
52033;SDS011;38045;52.988;6.536;2022-11-15T07:40:22;43.80;;;29.00;;
52033;SDS011;38045;52.988;6.536;2022-11-15T07:42:48;41.08;;;28.33;;
52033;SDS011;38045;52.988;6.536;2022-11-15T07:45:21;39.17;;;27.73;;
52033;SDS011;38045;52.988;6.536;2022-11-15T07:47:50;44.25;;;29.10;;
52033;SDS011;38045;52.988;6.536;2022-11-15T07:50:16;44.03;;;28.35;;
52033;SDS011;38045;52.988;6.536;2022-11-15T07:52:42;38.80;;;28.42;;
52033;SDS011;38045;52.988;6.536;2022-11-15T07:55:08;42.22;;;29.55;;
52033;SDS011;38045;52.988;6.536;2022-11-15T07:57:34;42.47;;;28.05;;
52033;SDS011;38045;52.988;6.536;2022-11-15T08:00:00;34.50;;;25.85;;
52033;SDS011;38045;52.988;6.536;2022-11-15T08:02:26;46.45;;;27.05;;
52033;SDS011;38045;52.988;6.536;2022-11-15T08:04:51;36.92;;;28.02;;
52033;SDS011;38045;52.988;6.536;2022-11-15T08:07:17;34.65;;;25.20;;
52033;SDS011;38045;52.988;6.536;2022-11-15T08:09:43;39.92;;;26.33;;
52033;SDS011;38045;52.988;6.536;2022-11-15T08:12:08;40.92;;;27.42;;
52033;SDS011;38045;52.988;6.536;2022-11-15T08:14:34;40.00;;;26.50;;
52033;SDS011;38045;52.988;6.536;2022-11-15T08:17:00;36.90;;;26.92;;
52033;SDS011;38045;52.988;6.536;2022-11-15T08:19:26;49.47;;;28.70;;
52033;SDS011;38045;52.988;6.536;2022-11-15T08:21:51;36.80;;;27.45;;
52033;SDS011;38045;52.988;6.536;2022-11-15T08:24:17;35.75;;;26.58;;
52033;SDS011;38045;52.988;6.536;2022-11-15T08:26:42;35.10;;;25.77;;
52033;SDS011;38045;52.988;6.536;2022-11-15T08:29:08;32.75;;;25.92;;
52033;SDS011;38045;52.988;6.536;2022-11-15T08:31:34;33.28;;;24.85;;
52033;SDS011;38045;52.988;6.536;2022-11-15T08:34:01;37.90;;;23.13;;
52033;SDS011;38045;52.988;6.536;2022-11-15T08:36:27;32.58;;;23.70;;
52033;SDS011;38045;52.988;6.536;2022-11-15T08:38:53;32.00;;;21.35;;
52033;SDS011;38045;52.988;6.536;2022-11-15T08:41:29;32.10;;;25.33;;
52033;SDS011;38045;52.988;6.536;2022-11-15T08:43:57;33.13;;;23.02;;
52033;SDS011;38045;52.988;6.536;2022-11-15T08:46:23;30.17;;;22.55;;
52033;SDS011;38045;52.988;6.536;2022-11-15T08:48:48;31.13;;;24.75;;
52033;SDS011;38045;52.988;6.536;2022-11-15T08:51:14;35.53;;;24.65;;
52033;SDS011;38045;52.988;6.536;2022-11-15T08:53:40;34.63;;;22.17;;
52033;SDS011;38045;52.988;6.536;2022-11-15T08:56:07;31.65;;;23.65;;
52033;SDS011;38045;52.988;6.536;2022-11-15T08:58:34;31.10;;;22.80;;
52033;SDS011;38045;52.988;6.536;2022-11-15T09:01:00;28.88;;;23.42;;
52033;SDS011;38045;52.988;6.536;2022-11-15T09:03:25;32.17;;;24.90;;
52033;SDS011;38045;52.988;6.536;2022-11-15T09:05:55;31.27;;;21.60;;
52033;SDS011;38045;52.988;6.536;2022-11-15T09:08:22;36.75;;;24.25;;
52033;SDS011;38045;52.988;6.536;2022-11-15T09:10:47;28.27;;;23.55;;
52033;SDS011;38045;52.988;6.536;2022-11-15T09:13:13;27.85;;;21.65;;
52033;SDS011;38045;52.988;6.536;2022-11-15T09:15:39;31.58;;;23.40;;
52033;SDS011;38045;52.988;6.536;2022-11-15T09:18:05;31.02;;;22.85;;
52033;SDS011;38045;52.988;6.536;2022-11-15T09:20:30;26.38;;;21.55;;
52033;SDS011;38045;52.988;6.536;2022-11-15T09:23:00;32.25;;;23.42;;
52033;SDS011;38045;52.988;6.536;2022-11-15T09:25:27;33.72;;;23.42;;
52033;SDS011;38045;52.988;6.536;2022-11-15T09:27:53;26.15;;;22.08;;
52033;SDS011;38045;52.988;6.536;2022-11-15T09:30:18;28.60;;;20.90;;
52033;SDS011;38045;52.988;6.536;2022-11-15T09:32:44;27.55;;;20.83;;
52033;SDS011;38045;52.988;6.536;2022-11-15T09:35:09;30.20;;;25.70;;
52033;SDS011;38045;52.988;6.536;2022-11-15T09:37:35;28.17;;;21.35;;
52033;SDS011;38045;52.988;6.536;2022-11-15T09:40:01;28.17;;;23.23;;
52033;SDS011;38045;52.988;6.536;2022-11-15T09:48:38;25.70;;;20.10;;
52033;SDS011;38045;52.988;6.536;2022-11-15T09:51:35;25.20;;;20.52;;
52033;SDS011;38045;52.988;6.536;2022-11-15T09:57:11;25.73;;;19.33;;
52033;SDS011;38045;52.988;6.536;2022-11-15T10:02:33;23.08;;;19.92;;
52033;SDS011;38045;52.988;6.536;2022-11-15T10:05:20;29.75;;;22.25;;
52033;SDS011;38045;52.988;6.536;2022-11-15T10:07:50;29.05;;;21.13;;
52033;SDS011;38045;52.988;6.536;2022-11-15T10:13:02;28.67;;;20.25;;
52033;SDS011;38045;52.988;6.536;2022-11-15T10:15:28;19.98;;;16.05;;
52033;SDS011;38045;52.988;6.536;2022-11-15T10:23:24;21.98;;;17.77;;
52033;SDS011;38045;52.988;6.536;2022-11-15T10:25:58;29.45;;;19.88;;
52033;SDS011;38045;52.988;6.536;2022-11-15T10:28:31;24.52;;;19.27;;
52033;SDS011;38045;52.988;6.536;2022-11-15T10:30:57;25.83;;;19.30;;
52033;SDS011;38045;52.988;6.536;2022-11-15T10:33:38;23.65;;;18.65;;
52033;SDS011;38045;52.988;6.536;2022-11-15T10:36:20;20.75;;;17.25;;
52033;SDS011;38045;52.988;6.536;2022-11-15T10:41:15;21.08;;;18.02;;
52033;SDS011;38045;52.988;6.536;2022-11-15T10:43:41;22.25;;;18.65;;
52033;SDS011;38045;52.988;6.536;2022-11-15T10:46:23;21.98;;;18.52;;
52033;SDS011;38045;52.988;6.536;2022-11-15T10:48:49;24.05;;;18.17;;
52033;SDS011;38045;52.988;6.536;2022-11-15T10:51:19;19.42;;;17.35;;
52033;SDS011;38045;52.988;6.536;2022-11-15T10:53:51;21.10;;;17.42;;
52033;SDS011;38045;52.988;6.536;2022-11-15T10:56:17;19.40;;;14.02;;
52033;SDS011;38045;52.988;6.536;2022-11-15T10:58:54;15.65;;;13.88;;
52033;SDS011;38045;52.988;6.536;2022-11-15T11:01:22;19.10;;;12.40;;
52033;SDS011;38045;52.988;6.536;2022-11-15T11:09:04;18.05;;;12.68;;
52033;SDS011;38045;52.988;6.536;2022-11-15T11:11:49;13.23;;;11.20;;
52033;SDS011;38045;52.988;6.536;2022-11-15T11:14:29;13.15;;;11.13;;
52033;SDS011;38045;52.988;6.536;2022-11-15T11:19:59;12.32;;;10.10;;
52033;SDS011;38045;52.988;6.536;2022-11-15T11:33:21;8.93;;;7.07;;
52033;SDS011;38045;52.988;6.536;2022-11-15T11:43:59;7.15;;;3.47;;
52033;SDS011;38045;52.988;6.536;2022-11-15T11:49:29;3.30;;;3.00;;
52033;SDS011;38045;52.988;6.536;2022-11-15T11:52:26;5.35;;;3.28;;
52033;SDS011;38045;52.988;6.536;2022-11-15T11:55:18;2.72;;;2.30;;
52033;SDS011;38045;52.988;6.536;2022-11-15T12:00:35;2.88;;;2.67;;
52033;SDS011;38045;52.988;6.536;2022-11-15T12:09:04;7.32;;;3.30;;
52033;SDS011;38045;52.988;6.536;2022-11-15T12:17:25;4.82;;;2.78;;
52033;SDS011;38045;52.988;6.536;2022-11-15T12:19:56;4.57;;;2.25;;
52033;SDS011;38045;52.988;6.536;2022-11-15T12:22:28;6.78;;;3.45;;
52033;SDS011;38045;52.988;6.536;2022-11-15T12:25:16;6.63;;;3.45;;
52033;SDS011;38045;52.988;6.536;2022-11-15T12:33:04;5.18;;;3.65;;
52033;SDS011;38045;52.988;6.536;2022-11-15T12:35:37;5.43;;;3.65;;
52033;SDS011;38045;52.988;6.536;2022-11-15T12:38:09;5.82;;;5.25;;
52033;SDS011;38045;52.988;6.536;2022-11-15T12:40:37;6.82;;;4.95;;
52033;SDS011;38045;52.988;6.536;2022-11-15T12:45:39;7.32;;;4.03;;
52033;SDS011;38045;52.988;6.536;2022-11-15T12:53:40;4.05;;;3.28;;
52033;SDS011;38045;52.988;6.536;2022-11-15T12:58:46;5.13;;;3.00;;
52033;SDS011;38045;52.988;6.536;2022-11-15T13:01:57;4.88;;;2.67;;
52033;SDS011;38045;52.988;6.536;2022-11-15T13:06:45;4.90;;;2.53;;
52033;SDS011;38045;52.988;6.536;2022-11-15T13:17:49;6.72;;;2.97;;
52033;SDS011;38045;52.988;6.536;2022-11-15T13:33:22;4.15;;;3.05;;
52033;SDS011;38045;52.988;6.536;2022-11-15T13:36:03;2.60;;;2.40;;
52033;SDS011;38045;52.988;6.536;2022-11-15T13:38:38;4.15;;;2.88;;
52033;SDS011;38045;52.988;6.536;2022-11-15T13:41:14;2.65;;;2.33;;
52033;SDS011;38045;52.988;6.536;2022-11-15T13:43:46;4.15;;;1.98;;
52033;SDS011;38045;52.988;6.536;2022-11-15T13:46:16;2.35;;;1.80;;
52033;SDS011;38045;52.988;6.536;2022-11-15T13:48:51;2.90;;;1.98;;
52033;SDS011;38045;52.988;6.536;2022-11-15T13:51:28;2.63;;;1.42;;
52033;SDS011;38045;52.988;6.536;2022-11-15T13:56:38;3.35;;;1.85;;
52033;SDS011;38045;52.988;6.536;2022-11-15T13:59:44;2.50;;;1.65;;
52033;SDS011;38045;52.988;6.536;2022-11-15T14:02:13;4.10;;;2.42;;
52033;SDS011;38045;52.988;6.536;2022-11-15T14:04:46;2.50;;;1.70;;
52033;SDS011;38045;52.988;6.536;2022-11-15T14:07:52;2.55;;;1.70;;
52033;SDS011;38045;52.988;6.536;2022-11-15T14:10:32;3.45;;;1.45;;
52033;SDS011;38045;52.988;6.536;2022-11-15T14:13:01;2.88;;;1.83;;
52033;SDS011;38045;52.988;6.536;2022-11-15T14:15:32;5.88;;;1.75;;
52033;SDS011;38045;52.988;6.536;2022-11-15T14:18:02;14.43;;;2.38;;
52033;SDS011;38045;52.988;6.536;2022-11-15T14:20:34;2.40;;;1.65;;
52033;SDS011;38045;52.988;6.536;2022-11-15T14:23:05;1.63;;;0.90;;
52033;SDS011;38045;52.988;6.536;2022-11-15T14:25:57;4.18;;;0.93;;
52033;SDS011;38045;52.988;6.536;2022-11-15T14:30:50;5.07;;;1.77;;
52033;SDS011;38045;52.988;6.536;2022-11-15T14:33:19;8.18;;;1.73;;
52033;SDS011;38045;52.988;6.536;2022-11-15T14:35:55;1.65;;;1.17;;
52033;SDS011;38045;52.988;6.536;2022-11-15T14:38:23;3.97;;;0.90;;
52033;SDS011;38045;52.988;6.536;2022-11-15T14:40:49;1.80;;;1.00;;
52033;SDS011;38045;52.988;6.536;2022-11-15T14:43:15;1.70;;;1.05;;
52033;SDS011;38045;52.988;6.536;2022-11-15T14:45:41;4.57;;;1.35;;
52033;SDS011;38045;52.988;6.536;2022-11-15T14:48:07;5.85;;;1.52;;
52033;SDS011;38045;52.988;6.536;2022-11-15T14:50:33;1.98;;;1.50;;
52033;SDS011;38045;52.988;6.536;2022-11-15T14:53:00;2.95;;;1.30;;
52033;SDS011;38045;52.988;6.536;2022-11-15T14:55:27;2.10;;;1.15;;
52033;SDS011;38045;52.988;6.536;2022-11-15T14:57:56;3.25;;;1.70;;
52033;SDS011;38045;52.988;6.536;2022-11-15T15:00:21;1.77;;;1.08;;
52033;SDS011;38045;52.988;6.536;2022-11-15T15:02:52;2.00;;;1.42;;
52033;SDS011;38045;52.988;6.536;2022-11-15T15:07:49;3.22;;;1.77;;
52033;SDS011;38045;52.988;6.536;2022-11-15T15:10:16;1.48;;;1.17;;
52033;SDS011;38045;52.988;6.536;2022-11-15T15:12:42;3.28;;;2.45;;
52033;SDS011;38045;52.988;6.536;2022-11-15T15:15:20;3.03;;;2.00;;
52033;SDS011;38045;52.988;6.536;2022-11-15T15:17:49;2.85;;;1.52;;
52033;SDS011;38045;52.988;6.536;2022-11-15T15:20:16;4.70;;;2.42;;
52033;SDS011;38045;52.988;6.536;2022-11-15T15:22:42;6.72;;;2.38;;
52033;SDS011;38045;52.988;6.536;2022-11-15T15:25:21;2.95;;;2.72;;
52033;SDS011;38045;52.988;6.536;2022-11-15T15:27:58;6.30;;;3.10;;
52033;SDS011;38045;52.988;6.536;2022-11-15T15:30:24;5.70;;;3.17;;
52033;SDS011;38045;52.988;6.536;2022-11-15T15:32:51;3.47;;;3.17;;
52033;SDS011;38045;52.988;6.536;2022-11-15T15:35:17;3.67;;;3.35;;
52033;SDS011;38045;52.988;6.536;2022-11-15T15:37:43;5.15;;;3.63;;
52033;SDS011;38045;52.988;6.536;2022-11-15T15:40:12;3.83;;;3.50;;
52033;SDS011;38045;52.988;6.536;2022-11-15T15:42:43;5.85;;;4.13;;
52033;SDS011;38045;52.988;6.536;2022-11-15T15:45:09;4.53;;;3.53;;
52033;SDS011;38045;52.988;6.536;2022-11-15T15:47:35;5.10;;;4.57;;
52033;SDS011;38045;52.988;6.536;2022-11-15T15:50:01;9.63;;;4.82;;
52033;SDS011;38045;52.988;6.536;2022-11-15T15:52:27;5.63;;;3.83;;
52033;SDS011;38045;52.988;6.536;2022-11-15T15:54:52;5.30;;;3.58;;
52033;SDS011;38045;52.988;6.536;2022-11-15T15:57:18;4.47;;;4.10;;
52033;SDS011;38045;52.988;6.536;2022-11-15T15:59:43;4.28;;;3.97;;
52033;SDS011;38045;52.988;6.536;2022-11-15T16:02:12;4.72;;;4.32;;
52033;SDS011;38045;52.988;6.536;2022-11-15T16:04:38;5.50;;;5.00;;
52033;SDS011;38045;52.988;6.536;2022-11-15T16:07:05;3.97;;;3.65;;
52033;SDS011;38045;52.988;6.536;2022-11-15T16:09:37;4.55;;;4.15;;
52033;SDS011;38045;52.988;6.536;2022-11-15T16:12:21;3.63;;;3.33;;
52033;SDS011;38045;52.988;6.536;2022-11-15T16:14:46;4.20;;;3.85;;
52033;SDS011;38045;52.988;6.536;2022-11-15T16:17:15;3.85;;;3.55;;
52033;SDS011;38045;52.988;6.536;2022-11-15T16:19:44;4.40;;;3.28;;
52033;SDS011;38045;52.988;6.536;2022-11-15T16:22:10;4.03;;;3.60;;
52033;SDS011;38045;52.988;6.536;2022-11-15T16:24:36;7.10;;;4.50;;
52033;SDS011;38045;52.988;6.536;2022-11-15T16:27:01;4.75;;;4.35;;
52033;SDS011;38045;52.988;6.536;2022-11-15T16:29:27;4.70;;;3.15;;
52033;SDS011;38045;52.988;6.536;2022-11-15T16:31:53;3.33;;;3.03;;
52033;SDS011;38045;52.988;6.536;2022-11-15T16:34:19;6.45;;;3.92;;
52033;SDS011;38045;52.988;6.536;2022-11-15T16:36:44;2.78;;;2.58;;
52033;SDS011;38045;52.988;6.536;2022-11-15T16:39:10;4.15;;;3.80;;
52033;SDS011;38045;52.988;6.536;2022-11-15T16:41:38;2.60;;;2.40;;
52033;SDS011;38045;52.988;6.536;2022-11-15T16:44:04;3.42;;;3.03;;
52033;SDS011;38045;52.988;6.536;2022-11-15T16:46:29;2.97;;;2.20;;
52033;SDS011;38045;52.988;6.536;2022-11-15T16:48:55;3.80;;;2.90;;
52033;SDS011;38045;52.988;6.536;2022-11-15T16:51:22;2.72;;;1.88;;
52033;SDS011;38045;52.988;6.536;2022-11-15T16:53:48;3.20;;;2.35;;
52033;SDS011;38045;52.988;6.536;2022-11-15T16:56:18;1.95;;;1.70;;
52033;SDS011;38045;52.988;6.536;2022-11-15T16:58:44;4.32;;;1.98;;
52033;SDS011;38045;52.988;6.536;2022-11-15T17:01:15;3.13;;;1.50;;
52033;SDS011;38045;52.988;6.536;2022-11-15T17:03:43;3.20;;;2.45;;
52033;SDS011;38045;52.988;6.536;2022-11-15T17:06:09;5.47;;;2.00;;